sensor_id;sensor_type;location;lat;lon;timestamp;pressure;altitude;pressure_sealevel;temperature;humidity
72560;BME280;62987;52.382;9.752;2023-02-13T00:01:17;103159.19;;;6.85;100.00
72560;BME280;62987;52.382;9.752;2023-02-13T00:03:45;103139.72;;;6.78;100.00
72560;BME280;62987;52.382;9.752;2023-02-13T00:06:13;103142.44;;;6.84;100.00
72560;BME280;62987;52.382;9.752;2023-02-13T00:08:41;103153.94;;;6.88;100.00
72560;BME280;62987;52.382;9.752;2023-02-13T00:11:10;103148.63;;;6.88;100.00
72560;BME280;62987;52.382;9.752;2023-02-13T00:13:38;103153.03;;;6.86;100.00
72560;BME280;62987;52.382;9.752;2023-02-13T00:16:06;103148.63;;;6.88;100.00
72560;BME280;62987;52.382;9.752;2023-02-13T00:18:36;103145.19;;;6.92;100.00
72560;BME280;62987;52.382;9.752;2023-02-13T00:21:06;103142.56;;;6.93;100.00
72560;BME280;62987;52.382;9.752;2023-02-13T00:23:36;103134.59;;;6.92;100.00
72560;BME280;62987;52.382;9.752;2023-02-13T00:26:06;103142.53;;;6.92;100.00
72560;BME280;62987;52.382;9.752;2023-02-13T00:28:35;103137.25;;;6.92;100.00
72560;BME280;62987;52.382;9.752;2023-02-13T00:31:06;103141.63;;;6.90;100.00
72560;BME280;62987;52.382;9.752;2023-02-13T00:33:34;103143.34;;;6.88;100.00
72560;BME280;62987;52.382;9.752;2023-02-13T00:36:04;103138.03;;;6.85;100.00
72560;BME280;62987;52.382;9.752;2023-02-13T00:38:33;103144.19;;;6.83;100.00
72560;BME280;62987;52.382;9.752;2023-02-13T00:41:02;103137.97;;;6.81;100.00
72560;BME280;62987;52.382;9.752;2023-02-13T00:43:30;103142.31;;;6.75;100.00
72560;BME280;62987;52.382;9.752;2023-02-13T00:46:00;103150.34;;;6.82;100.00
72560;BME280;62987;52.382;9.752;2023-02-13T00:48:29;103149.47;;;6.80;100.00
72560;BME280;62987;52.382;9.752;2023-02-13T00:50:58;103128.16;;;6.70;100.00
72560;BME280;62987;52.382;9.752;2023-02-13T00:53:28;103144.13;;;6.79;100.00
72560;BME280;62987;52.382;9.752;2023-02-13T00:55:57;103140.56;;;6.75;100.00
72560;BME280;62987;52.382;9.752;2023-02-13T00:58:25;103140.56;;;6.74;100.00
72560;BME280;62987;52.382;9.752;2023-02-13T01:00:54;103136.13;;;6.73;100.00
72560;BME280;62987;52.382;9.752;2023-02-13T01:03:25;103138.78;;;6.76;100.00
72560;BME280;62987;52.382;9.752;2023-02-13T01:05:55;103135.25;;;6.75;100.00
72560;BME280;62987;52.382;9.752;2023-02-13T01:08:24;103128.19;;;6.74;100.00
72560;BME280;62987;52.382;9.752;2023-02-13T01:10:54;103134.38;;;6.73;100.00
72560;BME280;62987;52.382;9.752;2023-02-13T01:13:23;103102.38;;;6.55;100.00
72560;BME280;62987;52.382;9.752;2023-02-13T01:15:52;103122.88;;;6.71;100.00
72560;BME280;62987;52.382;9.752;2023-02-13T01:18:21;103118.44;;;6.67;100.00
72560;BME280;62987;52.382;9.752;2023-02-13T01:20:57;103128.19;;;6.73;100.00
72560;BME280;62987;52.382;9.752;2023-02-13T01:23:29;103118.47;;;6.72;100.00
72560;BME280;62987;52.382;9.752;2023-02-13T01:25:57;103088.31;;;6.56;100.00
72560;BME280;62987;52.382;9.752;2023-02-13T01:28:25;103111.38;;;6.69;100.00
72560;BME280;62987;52.382;9.752;2023-02-13T01:30:53;103112.25;;;6.67;100.00
72560;BME280;62987;52.382;9.752;2023-02-13T01:33:23;103119.34;;;6.71;100.00
72560;BME280;62987;52.382;9.752;2023-02-13T01:35:52;103061.63;;;6.38;100.00
72560;BME280;62987;52.382;9.752;2023-02-13T01:38:21;103110.50;;;6.69;100.00
72560;BME280;62987;52.382;9.752;2023-02-13T01:40:51;103103.47;;;6.71;100.00
72560;BME280;62987;52.382;9.752;2023-02-13T01:43:20;103103.44;;;6.69;100.00
72560;BME280;62987;52.382;9.752;2023-02-13T01:45:51;103109.59;;;6.68;100.00
72560;BME280;62987;52.382;9.752;2023-02-13T01:48:24;103106.13;;;6.71;100.00
72560;BME280;62987;52.382;9.752;2023-02-13T01:50:59;103105.22;;;6.70;100.00
72560;BME280;62987;52.382;9.752;2023-02-13T01:53:32;103100.81;;;6.69;100.00
72560;BME280;62987;52.382;9.752;2023-02-13T01:56:04;103110.50;;;6.69;100.00
72560;BME280;62987;52.382;9.752;2023-02-13T01:58:36;103089.25;;;6.63;100.00
72560;BME280;62987;52.382;9.752;2023-02-13T02:01:07;103102.59;;;6.70;100.00
72560;BME280;62987;52.382;9.752;2023-02-13T02:03:38;103099.94;;;6.70;100.00
72560;BME280;62987;52.382;9.752;2023-02-13T02:06:15;103081.31;;;6.61;100.00
72560;BME280;62987;52.382;9.752;2023-02-13T02:08:48;103091.09;;;6.68;100.00
72560;BME280;62987;52.382;9.752;2023-02-13T02:11:26;103097.31;;;6.70;100.00
72560;BME280;62987;52.382;9.752;2023-02-13T02:13:56;103100.84;;;6.71;100.00
72560;BME280;62987;52.382;9.752;2023-02-13T02:16:31;103091.13;;;6.70;100.00
72560;BME280;62987;52.382;9.752;2023-02-13T02:19:04;103096.44;;;6.71;100.00
72560;BME280;62987;52.382;9.752;2023-02-13T02:24:51;103083.16;;;6.68;100.00
72560;BME280;62987;52.382;9.752;2023-02-13T02:27:49;103078.66;;;6.61;100.00
72560;BME280;62987;52.382;9.752;2023-02-13T02:30:46;103082.28;;;6.68;100.00
72560;BME280;62987;52.382;9.752;2023-02-13T02:33:28;103084.06;;;6.67;100.00
72560;BME280;62987;52.382;9.752;2023-02-13T02:36:11;103079.63;;;6.66;100.00
72560;BME280;62987;52.382;9.752;2023-02-13T02:38:56;103032.56;;;6.38;100.00
72560;BME280;62987;52.382;9.752;2023-02-13T02:41:34;103008.66;;;6.29;100.00
72560;BME280;62987;52.382;9.752;2023-02-13T02:44:16;103075.19;;;6.64;100.00
72560;BME280;62987;52.382;9.752;2023-02-13T02:46:57;103072.50;;;6.62;100.00
72560;BME280;62987;52.382;9.752;2023-02-13T02:49:52;103072.50;;;6.59;100.00
72560;BME280;62987;52.382;9.752;2023-02-13T02:52:38;103072.44;;;6.56;100.00
72560;BME280;62987;52.382;9.752;2023-02-13T02:55:19;103068.94;;;6.57;100.00
72560;BME280;62987;52.382;9.752;2023-02-13T02:58:00;103055.72;;;6.57;100.00
72560;BME280;62987;52.382;9.752;2023-02-13T03:00:50;103064.59;;;6.61;100.00
72560;BME280;62987;52.382;9.752;2023-02-13T03:03:34;103040.59;;;6.46;100.00
72560;BME280;62987;52.382;9.752;2023-02-13T03:06:36;103053.03;;;6.53;100.00
72560;BME280;62987;52.382;9.752;2023-02-13T03:09:09;103057.47;;;6.57;100.00
72560;BME280;62987;52.382;9.752;2023-02-13T03:11:56;103063.66;;;6.57;100.00
72560;BME280;62987;52.382;9.752;2023-02-13T03:14:43;103065.41;;;6.57;100.00
72560;BME280;62987;52.382;9.752;2023-02-13T03:17:12;103061.88;;;6.56;100.00
72560;BME280;62987;52.382;9.752;2023-02-13T03:20:08;103058.34;;;6.57;100.00
72560;BME280;62987;52.382;9.752;2023-02-13T03:23:06;103056.63;;;6.59;100.00
72560;BME280;62987;52.382;9.752;2023-02-13T03:25:52;103064.56;;;6.59;100.00
72560;BME280;62987;52.382;9.752;2023-02-13T03:28:29;103070.72;;;6.61;100.00
72560;BME280;62987;52.382;9.752;2023-02-13T03:31:24;103061.06;;;6.60;100.00
72560;BME280;62987;52.382;9.752;2023-02-13T03:33:59;103053.91;;;6.53;100.00
72560;BME280;62987;52.382;9.752;2023-02-13T03:36:36;103065.41;;;6.58;100.00
72560;BME280;62987;52.382;9.752;2023-02-13T03:39:33;103072.50;;;6.62;100.00
72560;BME280;62987;52.382;9.752;2023-02-13T03:42:05;103025.47;;;6.35;100.00
72560;BME280;62987;52.382;9.752;2023-02-13T03:44:37;103076.00;;;6.58;100.00
72560;BME280;62987;52.382;9.752;2023-02-13T03:47:09;103075.16;;;6.61;100.00
72560;BME280;62987;52.382;9.752;2023-02-13T03:49:42;103073.38;;;6.61;100.00
72560;BME280;62987;52.382;9.752;2023-02-13T03:52:31;103070.78;;;6.64;100.00
72560;BME280;62987;52.382;9.752;2023-02-13T03:55:05;103071.63;;;6.62;100.00
72560;BME280;62987;52.382;9.752;2023-02-13T03:57:57;103068.91;;;6.56;100.00
72560;BME280;62987;52.382;9.752;2023-02-13T04:00:47;103074.22;;;6.57;100.00
72560;BME280;62987;52.382;9.752;2023-02-13T04:03:21;103076.84;;;6.57;100.00
72560;BME280;62987;52.382;9.752;2023-02-13T04:05:54;103073.31;;;6.57;100.00
72560;BME280;62987;52.382;9.752;2023-02-13T04:08:24;103075.97;;;6.57;100.00
72560;BME280;62987;52.382;9.752;2023-02-13T04:10:59;103076.00;;;6.58;100.00
72560;BME280;62987;52.382;9.752;2023-02-13T04:13:33;103069.81;;;6.58;100.00
72560;BME280;62987;52.382;9.752;2023-02-13T04:16:06;103068.97;;;6.60;100.00
72560;BME280;62987;52.382;9.752;2023-02-13T04:18:35;103067.19;;;6.59;100.00
72560;BME280;62987;52.382;9.752;2023-02-13T04:21:05;103068.06;;;6.58;100.00
72560;BME280;62987;52.382;9.752;2023-02-13T04:23:34;103049.44;;;6.49;100.00
72560;BME280;62987;52.382;9.752;2023-02-13T04:26:06;103071.59;;;6.59;100.00
72560;BME280;62987;52.382;9.752;2023-02-13T04:28:35;103063.66;;;6.57;100.00
72560;BME280;62987;52.382;9.752;2023-02-13T04:31:03;103068.94;;;6.57;100.00
72560;BME280;62987;52.382;9.752;2023-02-13T04:33:32;103060.13;;;6.58;100.00
72560;BME280;62987;52.382;9.752;2023-02-13T04:36:00;103046.78;;;6.46;100.00
72560;BME280;62987;52.382;9.752;2023-02-13T04:38:28;103060.13;;;6.58;100.00
72560;BME280;62987;52.382;9.752;2023-02-13T04:40:56;103059.28;;;6.59;100.00
72560;BME280;62987;52.382;9.752;2023-02-13T04:43:25;103053.97;;;6.58;100.00
72560;BME280;62987;52.382;9.752;2023-02-13T04:45:53;103054.84;;;6.58;100.00
72560;BME280;62987;52.382;9.752;2023-02-13T04:48:21;103047.78;;;6.57;100.00
72560;BME280;62987;52.382;9.752;2023-02-13T04:50:49;103051.28;;;6.56;100.00
72560;BME280;62987;52.382;9.752;2023-02-13T04:53:17;102992.66;;;6.18;100.00
72560;BME280;62987;52.382;9.752;2023-02-13T04:55:45;103050.41;;;6.54;100.00
72560;BME280;62987;52.382;9.752;2023-02-13T04:58:13;103053.06;;;6.57;100.00
72560;BME280;62987;52.382;9.752;2023-02-13T05:00:42;103048.66;;;6.56;100.00
72560;BME280;62987;52.382;9.752;2023-02-13T05:03:12;103059.28;;;6.59;100.00
72560;BME280;62987;52.382;9.752;2023-02-13T05:05:40;103050.47;;;6.62;100.00
72560;BME280;62987;52.382;9.752;2023-02-13T05:08:08;103056.75;;;6.70;100.00
72560;BME280;62987;52.382;9.752;2023-02-13T05:10:36;103054.00;;;6.62;100.00
72560;BME280;62987;52.382;9.752;2023-02-13T05:13:04;103058.41;;;6.60;100.00
72560;BME280;62987;52.382;9.752;2023-02-13T05:15:32;103049.56;;;6.58;100.00
72560;BME280;62987;52.382;9.752;2023-02-13T05:18:01;103059.28;;;6.59;100.00
72560;BME280;62987;52.382;9.752;2023-02-13T05:20:29;103063.63;;;6.56;100.00
72560;BME280;62987;52.382;9.752;2023-02-13T05:22:58;103069.78;;;6.56;100.00
72560;BME280;62987;52.382;9.752;2023-02-13T05:25:44;103002.41;;;6.21;100.00
72560;BME280;62987;52.382;9.752;2023-02-13T05:28:12;103071.56;;;6.57;100.00
72560;BME280;62987;52.382;9.752;2023-02-13T05:30:54;103072.44;;;6.56;100.00
72560;BME280;62987;52.382;9.752;2023-02-13T05:33:24;103072.44;;;6.56;100.00
72560;BME280;62987;52.382;9.752;2023-02-13T05:35:52;103074.19;;;6.54;100.00
72560;BME280;62987;52.382;9.752;2023-02-13T05:38:20;103036.91;;;6.33;100.00
72560;BME280;62987;52.382;9.752;2023-02-13T05:40:48;103075.94;;;6.55;100.00
72560;BME280;62987;52.382;9.752;2023-02-13T05:43:16;103066.28;;;6.57;100.00
72560;BME280;62987;52.382;9.752;2023-02-13T05:45:44;103024.56;;;6.32;100.00
72560;BME280;62987;52.382;9.752;2023-02-13T05:48:12;103069.84;;;6.59;100.00
72560;BME280;62987;52.382;9.752;2023-02-13T05:50:42;103068.97;;;6.60;99.38
72560;BME280;62987;52.382;9.752;2023-02-13T05:53:10;103074.25;;;6.62;98.67
72560;BME280;62987;52.382;9.752;2023-02-13T05:55:37;103083.06;;;6.59;99.06
72560;BME280;62987;52.382;9.752;2023-02-13T05:58:05;103077.13;;;6.78;99.92
72560;BME280;62987;52.382;9.752;2023-02-13T06:00:35;103075.31;;;6.76;100.00
72560;BME280;62987;52.382;9.752;2023-02-13T06:03:03;103080.59;;;6.73;98.31
72560;BME280;62987;52.382;9.752;2023-02-13T06:05:31;103076.34;;;6.86;97.80
72560;BME280;62987;52.382;9.752;2023-02-13T06:08:00;103061.94;;;6.62;97.32
72560;BME280;62987;52.382;9.752;2023-02-13T06:10:28;103079.63;;;6.66;98.55
72560;BME280;62987;52.382;9.752;2023-02-13T06:12:56;103070.66;;;6.55;99.32
72560;BME280;62987;52.382;9.752;2023-02-13T06:15:24;103082.19;;;6.59;100.00
72560;BME280;62987;52.382;9.752;2023-02-13T06:17:52;103090.91;;;6.55;100.00
72560;BME280;62987;52.382;9.752;2023-02-13T06:20:20;103092.69;;;6.54;100.00
72560;BME280;62987;52.382;9.752;2023-02-13T06:22:48;103092.69;;;6.53;100.00
72560;BME280;62987;52.382;9.752;2023-02-13T06:25:18;103076.72;;;6.45;100.00
72560;BME280;62987;52.382;9.752;2023-02-13T06:27:47;103090.91;;;6.53;100.00
72560;BME280;62987;52.382;9.752;2023-02-13T06:30:16;103095.34;;;6.54;99.77
72560;BME280;62987;52.382;9.752;2023-02-13T06:32:45;103090.03;;;6.53;99.42
72560;BME280;62987;52.382;9.752;2023-02-13T06:35:13;103093.50;;;6.50;100.00
72560;BME280;62987;52.382;9.752;2023-02-13T06:37:41;103097.00;;;6.46;100.00
72560;BME280;62987;52.382;9.752;2023-02-13T06:40:12;103097.00;;;6.49;100.00
72560;BME280;62987;52.382;9.752;2023-02-13T06:42:42;103098.78;;;6.50;100.00
72560;BME280;62987;52.382;9.752;2023-02-13T06:45:10;103098.84;;;6.53;99.44
72560;BME280;62987;52.382;9.752;2023-02-13T06:47:40;103105.91;;;6.53;99.42
72560;BME280;62987;52.382;9.752;2023-02-13T06:50:09;103099.66;;;6.49;99.41
72560;BME280;62987;52.382;9.752;2023-02-13T06:52:37;103099.72;;;6.52;98.79
72560;BME280;62987;52.382;9.752;2023-02-13T06:55:05;103102.34;;;6.52;98.52
72560;BME280;62987;52.382;9.752;2023-02-13T06:57:34;103107.66;;;6.52;98.57
72560;BME280;62987;52.382;9.752;2023-02-13T07:00:04;103089.88;;;6.42;98.91
72560;BME280;62987;52.382;9.752;2023-02-13T07:02:32;103101.50;;;6.53;98.67
72560;BME280;62987;52.382;9.752;2023-02-13T07:05:00;103110.31;;;6.54;98.58
72560;BME280;62987;52.382;9.752;2023-02-13T07:07:32;103036.66;;;6.15;98.05
72560;BME280;62987;52.382;9.752;2023-02-13T07:10:00;103095.25;;;6.47;97.69
72560;BME280;62987;52.382;9.752;2023-02-13T07:12:28;103102.34;;;6.52;98.44
72560;BME280;62987;52.382;9.752;2023-02-13T07:14:56;103104.16;;;6.56;98.89
72560;BME280;62987;52.382;9.752;2023-02-13T07:17:26;103108.63;;;6.59;97.53
72560;BME280;62987;52.382;9.752;2023-02-13T07:19:53;103089.97;;;6.50;97.27
72560;BME280;62987;52.382;9.752;2023-02-13T07:22:22;103108.66;;;6.60;97.30
72560;BME280;62987;52.382;9.752;2023-02-13T07:24:50;103114.00;;;6.66;97.37
72560;BME280;62987;52.382;9.752;2023-02-13T07:27:18;103113.09;;;6.64;97.72
72560;BME280;62987;52.382;9.752;2023-02-13T07:29:45;103123.66;;;6.64;97.71
72560;BME280;62987;52.382;9.752;2023-02-13T07:32:13;103125.38;;;6.62;98.08
72560;BME280;62987;52.382;9.752;2023-02-13T07:34:43;103123.59;;;6.61;97.95
72560;BME280;62987;52.382;9.752;2023-02-13T07:37:27;103116.56;;;6.60;97.78
72560;BME280;62987;52.382;9.752;2023-02-13T07:39:55;103129.88;;;6.66;97.61
72560;BME280;62987;52.382;9.752;2023-02-13T07:42:23;103124.59;;;6.66;97.73
72560;BME280;62987;52.382;9.752;2023-02-13T07:44:51;103136.09;;;6.71;97.38
72560;BME280;62987;52.382;9.752;2023-02-13T07:47:19;103123.72;;;6.67;97.36
72560;BME280;62987;52.382;9.752;2023-02-13T07:49:49;103137.03;;;6.73;97.74
72560;BME280;62987;52.382;9.752;2023-02-13T07:52:16;103137.81;;;6.68;97.76
72560;BME280;62987;52.382;9.752;2023-02-13T07:54:44;103134.31;;;6.67;97.91
72560;BME280;62987;52.382;9.752;2023-02-13T07:57:14;103134.31;;;6.67;97.93
72560;BME280;62987;52.382;9.752;2023-02-13T07:59:42;103131.69;;;6.70;97.83
72560;BME280;62987;52.382;9.752;2023-02-13T08:02:11;103128.09;;;6.65;98.02
72560;BME280;62987;52.382;9.752;2023-02-13T08:04:40;103103.28;;;6.56;97.84
72560;BME280;62987;52.382;9.752;2023-02-13T08:07:14;103137.91;;;6.75;97.52
72560;BME280;62987;52.382;9.752;2023-02-13T08:09:43;103144.94;;;6.75;97.50
72560;BME280;62987;52.382;9.752;2023-02-13T08:12:30;103124.47;;;6.59;97.92
72560;BME280;62987;52.382;9.752;2023-02-13T08:14:59;103139.59;;;6.70;97.92
72560;BME280;62987;52.382;9.752;2023-02-13T08:17:27;103141.34;;;6.68;97.31
72560;BME280;62987;52.382;9.752;2023-02-13T08:19:55;103144.91;;;6.70;97.46
72560;BME280;62987;52.382;9.752;2023-02-13T08:22:25;103142.34;;;6.76;97.49
72560;BME280;62987;52.382;9.752;2023-02-13T08:24:53;103155.63;;;6.82;97.09
72560;BME280;62987;52.382;9.752;2023-02-13T08:27:21;103152.13;;;6.83;96.62
72560;BME280;62987;52.382;9.752;2023-02-13T08:29:49;103151.97;;;6.71;96.82
72560;BME280;62987;52.382;9.752;2023-02-13T08:32:18;103157.41;;;6.80;96.59
72560;BME280;62987;52.382;9.752;2023-02-13T08:34:46;103134.38;;;6.75;96.70
72560;BME280;62987;52.382;9.752;2023-02-13T08:37:14;103148.50;;;6.74;96.14
72560;BME280;62987;52.382;9.752;2023-02-13T08:39:43;103149.34;;;6.74;96.73
72560;BME280;62987;52.382;9.752;2023-02-13T08:42:11;103157.47;;;6.87;96.48
72560;BME280;62987;52.382;9.752;2023-02-13T08:44:43;103157.38;;;6.82;96.15
72560;BME280;62987;52.382;9.752;2023-02-13T08:47:11;103156.50;;;6.80;96.18
72560;BME280;62987;52.382;9.752;2023-02-13T08:49:39;103150.44;;;6.90;95.91
72560;BME280;62987;52.382;9.752;2023-02-13T08:52:07;103154.00;;;6.94;95.71
72560;BME280;62987;52.382;9.752;2023-02-13T08:54:35;103155.81;;;6.96;95.11
72560;BME280;62987;52.382;9.752;2023-02-13T08:57:04;103151.41;;;6.97;94.99
72560;BME280;62987;52.382;9.752;2023-02-13T08:59:32;103148.84;;;7.03;95.04
72560;BME280;62987;52.382;9.752;2023-02-13T09:02:00;103158.56;;;7.07;95.12
72560;BME280;62987;52.382;9.752;2023-02-13T09:04:28;103153.38;;;7.14;94.05
72560;BME280;62987;52.382;9.752;2023-02-13T09:06:56;103150.69;;;7.10;94.41
72560;BME280;62987;52.382;9.752;2023-02-13T09:09:24;103142.72;;;7.08;93.99
72560;BME280;62987;52.382;9.752;2023-02-13T09:11:52;103154.25;;;7.15;94.04
72560;BME280;62987;52.382;9.752;2023-02-13T09:14:24;103155.25;;;7.26;93.62
72560;BME280;62987;52.382;9.752;2023-02-13T09:16:52;103099.38;;;6.96;93.36
72560;BME280;62987;52.382;9.752;2023-02-13T09:19:20;103147.38;;;7.29;92.69
72560;BME280;62987;52.382;9.752;2023-02-13T09:21:48;103148.34;;;7.36;91.86
72560;BME280;62987;52.382;9.752;2023-02-13T09:24:16;103148.31;;;7.34;92.37
72560;BME280;62987;52.382;9.752;2023-02-13T09:26:44;103147.56;;;7.47;91.53
72560;BME280;62987;52.382;9.752;2023-02-13T09:29:12;103146.50;;;7.29;91.89
72560;BME280;62987;52.382;9.752;2023-02-13T09:31:42;103149.97;;;7.23;92.32
72560;BME280;62987;52.382;9.752;2023-02-13T09:34:10;103145.66;;;7.34;91.70
72560;BME280;62987;52.382;9.752;2023-02-13T09:36:38;103144.16;;;7.57;91.72
72560;BME280;62987;52.382;9.752;2023-02-13T09:39:06;103132.72;;;7.63;90.07
72560;BME280;62987;52.382;9.752;2023-02-13T09:41:35;103135.41;;;7.68;89.41
72560;BME280;62987;52.382;9.752;2023-02-13T09:44:11;103121.06;;;7.46;89.68
72560;BME280;62987;52.382;9.752;2023-02-13T09:47:03;103144.25;;;7.70;90.32
72560;BME280;62987;52.382;9.752;2023-02-13T09:49:34;103140.91;;;7.92;89.56
72560;BME280;62987;52.382;9.752;2023-02-13T09:52:03;103139.25;;;8.03;89.33
72560;BME280;62987;52.382;9.752;2023-02-13T09:54:31;103144.59;;;8.11;88.75
72560;BME280;62987;52.382;9.752;2023-02-13T09:57:01;103139.31;;;8.12;88.73
72560;BME280;62987;52.382;9.752;2023-02-13T09:59:38;103142.91;;;8.20;87.95
72560;BME280;62987;52.382;9.752;2023-02-13T10:02:22;103142.81;;;8.11;88.06
72560;BME280;62987;52.382;9.752;2023-02-13T10:04:59;103150.75;;;8.03;88.73
72560;BME280;62987;52.382;9.752;2023-02-13T10:07:38;103148.03;;;7.96;88.46
72560;BME280;62987;52.382;9.752;2023-02-13T10:10:16;103150.91;;;8.26;87.61
72560;BME280;62987;52.382;9.752;2023-02-13T10:12:55;103145.69;;;8.35;86.91
72560;BME280;62987;52.382;9.752;2023-02-13T10:15:33;103135.94;;;8.31;86.92
72560;BME280;62987;52.382;9.752;2023-02-13T10:18:11;103155.41;;;8.33;86.99
72560;BME280;62987;52.382;9.752;2023-02-13T10:20:43;103157.91;;;8.20;86.67
72560;BME280;62987;52.382;9.752;2023-02-13T10:23:20;103152.78;;;8.38;87.36
72560;BME280;62987;52.382;9.752;2023-02-13T10:25:54;103142.91;;;8.23;85.88
72560;BME280;62987;52.382;9.752;2023-02-13T10:28:30;103137.34;;;7.88;84.98
72560;BME280;62987;52.382;9.752;2023-02-13T10:31:03;103155.13;;;8.00;85.99
72560;BME280;62987;52.382;9.752;2023-02-13T10:33:39;103158.63;;;7.99;85.55
72560;BME280;62987;52.382;9.752;2023-02-13T10:36:16;103149.88;;;8.08;85.00
72560;BME280;62987;52.382;9.752;2023-02-13T10:38:55;103158.88;;;8.29;84.33
72560;BME280;62987;52.382;9.752;2023-02-13T10:41:27;103157.91;;;8.18;84.36
72560;BME280;62987;52.382;9.752;2023-02-13T10:44:19;103153.66;;;8.38;83.73
72560;BME280;62987;52.382;9.752;2023-02-13T10:46:55;103151.97;;;8.53;82.80
72560;BME280;62987;52.382;9.752;2023-02-13T10:49:39;103150.25;;;8.59;82.26
72560;BME280;62987;52.382;9.752;2023-02-13T10:52:17;103145.78;;;8.48;82.88
72560;BME280;62987;52.382;9.752;2023-02-13T10:54:59;103154.41;;;8.25;82.94
72560;BME280;62987;52.382;9.752;2023-02-13T10:57:39;103153.66;;;8.35;82.94
72560;BME280;62987;52.382;9.752;2023-02-13T11:00:17;103157.22;;;8.43;82.75
72560;BME280;62987;52.382;9.752;2023-02-13T11:02:48;103150.22;;;8.49;83.19
72560;BME280;62987;52.382;9.752;2023-02-13T11:05:20;103150.09;;;8.33;82.69
72560;BME280;62987;52.382;9.752;2023-02-13T11:07:49;103142.25;;;8.56;82.61
72560;BME280;62987;52.382;9.752;2023-02-13T11:10:19;103147.69;;;8.77;80.89
72560;BME280;62987;52.382;9.752;2023-02-13T11:12:48;103134.41;;;8.73;81.31
72560;BME280;62987;52.382;9.752;2023-02-13T11:15:22;103128.25;;;8.81;81.18
72560;BME280;62987;52.382;9.752;2023-02-13T11:17:52;103142.41;;;8.83;81.10
72560;BME280;62987;52.382;9.752;2023-02-13T11:20:27;103134.53;;;9.05;80.44
72560;BME280;62987;52.382;9.752;2023-02-13T11:23:14;103138.97;;;9.09;80.14
72560;BME280;62987;52.382;9.752;2023-02-13T11:25:54;103143.31;;;8.87;80.03
72560;BME280;62987;52.382;9.752;2023-02-13T11:28:23;103141.53;;;8.89;80.54
72560;BME280;62987;52.382;9.752;2023-02-13T11:30:52;103134.44;;;8.82;80.75
72560;BME280;62987;52.382;9.752;2023-02-13T11:33:22;103132.66;;;8.75;80.05
72560;BME280;62987;52.382;9.752;2023-02-13T11:36:04;103129.16;;;8.87;79.97
72560;BME280;62987;52.382;9.752;2023-02-13T11:38:33;103124.72;;;8.89;79.77
72560;BME280;62987;52.382;9.752;2023-02-13T11:41:07;103122.13;;;8.99;80.16
72560;BME280;62987;52.382;9.752;2023-02-13T11:43:41;103121.28;;;9.06;78.99
72560;BME280;62987;52.382;9.752;2023-02-13T11:46:18;103115.00;;;8.89;78.42
72560;BME280;62987;52.382;9.752;2023-02-13T11:51:59;103115.13;;;9.29;79.07
72560;BME280;62987;52.382;9.752;2023-02-13T11:54:32;103015.09;;;8.94;78.35
72560;BME280;62987;52.382;9.752;2023-02-13T11:57:02;103103.63;;;9.28;79.05
72560;BME280;62987;52.382;9.752;2023-02-13T11:59:38;103109.84;;;9.41;79.29
72560;BME280;62987;52.382;9.752;2023-02-13T12:02:28;103009.72;;;8.82;78.46
72560;BME280;62987;52.382;9.752;2023-02-13T12:05:15;103113.41;;;9.52;78.24
72560;BME280;62987;52.382;9.752;2023-02-13T12:07:46;103093.00;;;9.30;79.15
72560;BME280;62987;52.382;9.752;2023-02-13T12:10:21;103095.63;;;9.14;80.08
72560;BME280;62987;52.382;9.752;2023-02-13T12:12:53;103099.06;;;8.85;80.95
72560;BME280;62987;52.382;9.752;2023-02-13T12:15:24;103107.91;;;8.79;81.87
72560;BME280;62987;52.382;9.752;2023-02-13T12:18:01;103112.34;;;8.85;81.89
72560;BME280;62987;52.382;9.752;2023-02-13T12:20:38;103105.25;;;8.82;82.45
72560;BME280;62987;52.382;9.752;2023-02-13T12:23:21;103080.50;;;8.86;81.24
72560;BME280;62987;52.382;9.752;2023-02-13T12:26:02;103102.72;;;9.18;81.08
72560;BME280;62987;52.382;9.752;2023-02-13T12:28:49;103092.13;;;9.31;79.88
72560;BME280;62987;52.382;9.752;2023-02-13T12:31:42;103074.41;;;9.36;79.48
72560;BME280;62987;52.382;9.752;2023-02-13T12:34:37;103087.66;;;9.10;80.01
72560;BME280;62987;52.382;9.752;2023-02-13T12:37:15;103082.28;;;8.87;80.21
72560;BME280;62987;52.382;9.752;2023-02-13T12:39:59;103086.63;;;8.70;81.25
72560;BME280;62987;52.382;9.752;2023-02-13T12:42:37;103079.63;;;8.90;80.70
72560;BME280;62987;52.382;9.752;2023-02-13T12:45:15;103077.00;;;8.93;80.70
72560;BME280;62987;52.382;9.752;2023-02-13T12:48:01;103081.44;;;9.03;80.02
72560;BME280;62987;52.382;9.752;2023-02-13T12:50:41;103069.06;;;9.14;79.55
72560;BME280;62987;52.382;9.752;2023-02-13T12:53:27;103071.75;;;9.28;79.03
72560;BME280;62987;52.382;9.752;2023-02-13T12:56:11;103069.06;;;9.04;79.52
72560;BME280;62987;52.382;9.752;2023-02-13T12:58:54;103069.06;;;9.20;79.03
72560;BME280;62987;52.382;9.752;2023-02-13T13:01:37;103066.44;;;9.22;77.77
72560;BME280;62987;52.382;9.752;2023-02-13T13:04:16;103062.88;;;9.17;78.75
72560;BME280;62987;52.382;9.752;2023-02-13T13:06:56;103065.53;;;9.00;78.35
72560;BME280;62987;52.382;9.752;2023-02-13T13:09:37;103072.56;;;8.86;78.94
72560;BME280;62987;52.382;9.752;2023-02-13T13:12:20;103039.66;;;8.43;79.95
72560;BME280;62987;52.382;9.752;2023-02-13T13:14:54;103068.09;;;8.74;79.74
72560;BME280;62987;52.382;9.752;2023-02-13T13:17:33;103068.91;;;8.54;79.78
72560;BME280;62987;52.382;9.752;2023-02-13T13:20:21;103026.38;;;8.34;79.18
72560;BME280;62987;52.382;9.752;2023-02-13T13:22:56;103057.41;;;8.62;79.32
72560;BME280;62987;52.382;9.752;2023-02-13T13:25:33;103055.72;;;8.82;78.69
72560;BME280;62987;52.382;9.752;2023-02-13T13:28:10;103054.78;;;8.65;78.48
72560;BME280;62987;52.382;9.752;2023-02-13T13:30:41;103050.28;;;8.41;78.66
72560;BME280;62987;52.382;9.752;2023-02-13T13:33:13;103056.44;;;8.40;79.04